sensor_id;sensor_type;location;lat;lon;timestamp;temperature;humidity
55369;DHT22;41247;49.736;8.752;2022-08-25T00:02:08;20.00;99.90
55369;DHT22;41247;49.736;8.752;2022-08-25T00:05:49;20.00;99.90
55369;DHT22;41247;49.736;8.752;2022-08-25T00:09:31;19.90;99.90
55369;DHT22;41247;49.736;8.752;2022-08-25T00:13:12;19.80;99.90
55369;DHT22;41247;49.736;8.752;2022-08-25T00:16:53;19.70;99.90
55369;DHT22;41247;49.736;8.752;2022-08-25T00:20:33;19.70;99.90
55369;DHT22;41247;49.736;8.752;2022-08-25T00:24:16;19.80;99.90
55369;DHT22;41247;49.736;8.752;2022-08-25T00:27:57;19.90;99.90
55369;DHT22;41247;49.736;8.752;2022-08-25T00:31:39;19.90;99.90
55369;DHT22;41247;49.736;8.752;2022-08-25T00:35:20;20.00;99.90
55369;DHT22;41247;49.736;8.752;2022-08-25T00:39:01;20.00;99.90
55369;DHT22;41247;49.736;8.752;2022-08-25T00:42:41;20.10;99.90
55369;DHT22;41247;49.736;8.752;2022-08-25T00:46:33;20.10;99.90
55369;DHT22;41247;49.736;8.752;2022-08-25T00:50:18;20.00;99.90
55369;DHT22;41247;49.736;8.752;2022-08-25T00:54:01;19.90;99.90
55369;DHT22;41247;49.736;8.752;2022-08-25T00:57:53;19.80;99.90
55369;DHT22;41247;49.736;8.752;2022-08-25T01:01:38;19.80;99.90
55369;DHT22;41247;49.736;8.752;2022-08-25T01:05:19;19.90;99.90
55369;DHT22;41247;49.736;8.752;2022-08-25T01:09:00;19.80;99.90
55369;DHT22;41247;49.736;8.752;2022-08-25T01:12:40;19.70;99.90
55369;DHT22;41247;49.736;8.752;2022-08-25T01:16:21;19.90;99.90
55369;DHT22;41247;49.736;8.752;2022-08-25T01:20:02;19.90;99.90
55369;DHT22;41247;49.736;8.752;2022-08-25T01:23:44;19.90;99.90
55369;DHT22;41247;49.736;8.752;2022-08-25T01:27:26;19.80;99.90
55369;DHT22;41247;49.736;8.752;2022-08-25T01:31:06;19.70;99.90
55369;DHT22;41247;49.736;8.752;2022-08-25T01:34:47;19.70;99.90
55369;DHT22;41247;49.736;8.752;2022-08-25T01:38:27;19.80;99.90
55369;DHT22;41247;49.736;8.752;2022-08-25T01:42:23;19.70;99.90
55369;DHT22;41247;49.736;8.752;2022-08-25T01:46:08;19.70;99.90
55369;DHT22;41247;49.736;8.752;2022-08-25T01:49:49;19.60;99.90
55369;DHT22;41247;49.736;8.752;2022-08-25T01:53:31;19.50;99.90
55369;DHT22;41247;49.736;8.752;2022-08-25T01:57:11;19.50;99.90
55369;DHT22;41247;49.736;8.752;2022-08-25T02:00:54;19.40;99.90
55369;DHT22;41247;49.736;8.752;2022-08-25T02:04:36;19.40;99.90
55369;DHT22;41247;49.736;8.752;2022-08-25T02:08:17;19.30;99.90
55369;DHT22;41247;49.736;8.752;2022-08-25T02:11:58;19.30;99.90
55369;DHT22;41247;49.736;8.752;2022-08-25T02:15:41;19.30;99.90
55369;DHT22;41247;49.736;8.752;2022-08-25T02:19:23;19.40;99.90
55369;DHT22;41247;49.736;8.752;2022-08-25T02:23:04;19.40;99.90
55369;DHT22;41247;49.736;8.752;2022-08-25T02:26:45;19.40;99.90
55369;DHT22;41247;49.736;8.752;2022-08-25T02:30:26;19.20;99.90
55369;DHT22;41247;49.736;8.752;2022-08-25T02:34:07;19.10;99.90
55369;DHT22;41247;49.736;8.752;2022-08-25T02:37:52;19.00;99.90
55369;DHT22;41247;49.736;8.752;2022-08-25T02:41:33;18.90;99.90
55369;DHT22;41247;49.736;8.752;2022-08-25T02:45:15;18.90;99.90
55369;DHT22;41247;49.736;8.752;2022-08-25T02:48:56;18.80;99.90
55369;DHT22;41247;49.736;8.752;2022-08-25T02:52:37;18.80;99.90
55369;DHT22;41247;49.736;8.752;2022-08-25T02:56:19;18.80;99.90
55369;DHT22;41247;49.736;8.752;2022-08-25T03:00:00;18.80;99.90
55369;DHT22;41247;49.736;8.752;2022-08-25T03:03:42;18.80;99.90
55369;DHT22;41247;49.736;8.752;2022-08-25T03:07:23;18.70;99.90
55369;DHT22;41247;49.736;8.752;2022-08-25T03:11:04;18.60;99.90
55369;DHT22;41247;49.736;8.752;2022-08-25T03:14:45;18.50;99.90
55369;DHT22;41247;49.736;8.752;2022-08-25T03:18:26;18.40;99.90
55369;DHT22;41247;49.736;8.752;2022-08-25T03:22:07;18.30;99.90
55369;DHT22;41247;49.736;8.752;2022-08-25T03:25:48;18.20;99.90
55369;DHT22;41247;49.736;8.752;2022-08-25T03:29:31;18.00;99.90
55369;DHT22;41247;49.736;8.752;2022-08-25T03:33:12;17.90;99.90
55369;DHT22;41247;49.736;8.752;2022-08-25T03:36:54;17.80;99.90
55369;DHT22;41247;49.736;8.752;2022-08-25T03:40:35;17.60;99.90
55369;DHT22;41247;49.736;8.752;2022-08-25T03:44:17;17.50;99.90
55369;DHT22;41247;49.736;8.752;2022-08-25T03:47:58;17.40;99.90
55369;DHT22;41247;49.736;8.752;2022-08-25T03:51:43;17.30;99.90
55369;DHT22;41247;49.736;8.752;2022-08-25T03:55:25;17.20;99.90
55369;DHT22;41247;49.736;8.752;2022-08-25T03:59:06;17.10;99.90
55369;DHT22;41247;49.736;8.752;2022-08-25T04:02:47;17.00;99.90
55369;DHT22;41247;49.736;8.752;2022-08-25T04:06:28;16.90;99.90
55369;DHT22;41247;49.736;8.752;2022-08-25T04:10:09;16.80;99.90
55369;DHT22;41247;49.736;8.752;2022-08-25T04:13:51;16.80;99.90
55369;DHT22;41247;49.736;8.752;2022-08-25T04:17:35;16.80;99.90
55369;DHT22;41247;49.736;8.752;2022-08-25T04:21:18;16.70;99.90
55369;DHT22;41247;49.736;8.752;2022-08-25T04:24:59;16.70;99.90
55369;DHT22;41247;49.736;8.752;2022-08-25T04:28:40;16.70;99.90
55369;DHT22;41247;49.736;8.752;2022-08-25T04:32:21;16.70;99.90
55369;DHT22;41247;49.736;8.752;2022-08-25T04:36:06;16.70;99.90
55369;DHT22;41247;49.736;8.752;2022-08-25T04:39:47;16.70;99.90
55369;DHT22;41247;49.736;8.752;2022-08-25T04:43:32;16.60;99.90
55369;DHT22;41247;49.736;8.752;2022-08-25T04:47:14;16.60;99.90
55369;DHT22;41247;49.736;8.752;2022-08-25T04:50:54;16.50;99.90
55369;DHT22;41247;49.736;8.752;2022-08-25T04:54:35;16.50;99.90
55369;DHT22;41247;49.736;8.752;2022-08-25T04:58:16;16.50;99.90
55369;DHT22;41247;49.736;8.752;2022-08-25T05:01:58;16.40;99.90
55369;DHT22;41247;49.736;8.752;2022-08-25T05:05:39;16.40;99.90
55369;DHT22;41247;49.736;8.752;2022-08-25T05:09:20;16.30;99.90
55369;DHT22;41247;49.736;8.752;2022-08-25T05:13:00;16.30;99.90
55369;DHT22;41247;49.736;8.752;2022-08-25T05:16:41;16.30;99.90
55369;DHT22;41247;49.736;8.752;2022-08-25T05:20:22;16.20;99.90
55369;DHT22;41247;49.736;8.752;2022-08-25T05:24:03;16.20;99.90
55369;DHT22;41247;49.736;8.752;2022-08-25T05:27:44;16.20;99.90
55369;DHT22;41247;49.736;8.752;2022-08-25T05:31:26;16.20;99.90
55369;DHT22;41247;49.736;8.752;2022-08-25T05:35:07;16.10;99.90
55369;DHT22;41247;49.736;8.752;2022-08-25T05:38:48;16.10;99.90
55369;DHT22;41247;49.736;8.752;2022-08-25T05:42:29;16.20;99.90
55369;DHT22;41247;49.736;8.752;2022-08-25T05:46:12;16.20;99.90
55369;DHT22;41247;49.736;8.752;2022-08-25T05:49:53;16.20;99.90
55369;DHT22;41247;49.736;8.752;2022-08-25T05:53:34;16.30;99.90
55369;DHT22;41247;49.736;8.752;2022-08-25T05:57:15;16.30;99.90
55369;DHT22;41247;49.736;8.752;2022-08-25T06:00:57;16.40;99.90
55369;DHT22;41247;49.736;8.752;2022-08-25T06:04:38;16.50;99.90
55369;DHT22;41247;49.736;8.752;2022-08-25T06:08:19;16.50;99.90
55369;DHT22;41247;49.736;8.752;2022-08-25T06:11:59;16.50;99.90
55369;DHT22;41247;49.736;8.752;2022-08-25T06:15:40;16.60;99.90
55369;DHT22;41247;49.736;8.752;2022-08-25T06:19:21;16.70;99.90
55369;DHT22;41247;49.736;8.752;2022-08-25T06:23:02;16.70;99.90
55369;DHT22;41247;49.736;8.752;2022-08-25T06:26:42;16.80;99.90
55369;DHT22;41247;49.736;8.752;2022-08-25T06:30:23;16.90;99.90
55369;DHT22;41247;49.736;8.752;2022-08-25T06:34:03;17.00;99.90
55369;DHT22;41247;49.736;8.752;2022-08-25T06:37:45;17.30;99.90
55369;DHT22;41247;49.736;8.752;2022-08-25T06:41:26;17.70;99.90
55369;DHT22;41247;49.736;8.752;2022-08-25T06:45:07;18.00;99.90
55369;DHT22;41247;49.736;8.752;2022-08-25T06:48:51;18.40;99.90
55369;DHT22;41247;49.736;8.752;2022-08-25T06:52:34;18.70;99.90
55369;DHT22;41247;49.736;8.752;2022-08-25T06:56:15;19.10;99.90
55369;DHT22;41247;49.736;8.752;2022-08-25T06:59:57;19.40;99.90
55369;DHT22;41247;49.736;8.752;2022-08-25T07:03:38;19.70;99.90
55369;DHT22;41247;49.736;8.752;2022-08-25T07:07:19;19.90;99.90
55369;DHT22;41247;49.736;8.752;2022-08-25T07:11:05;20.20;99.90
55369;DHT22;41247;49.736;8.752;2022-08-25T07:14:49;20.60;99.90
55369;DHT22;41247;49.736;8.752;2022-08-25T07:18:31;20.90;99.90
55369;DHT22;41247;49.736;8.752;2022-08-25T07:22:12;21.20;99.90
55369;DHT22;41247;49.736;8.752;2022-08-25T07:25:53;21.50;99.90
55369;DHT22;41247;49.736;8.752;2022-08-25T07:29:34;21.80;99.90
55369;DHT22;41247;49.736;8.752;2022-08-25T07:33:15;22.10;99.90
55369;DHT22;41247;49.736;8.752;2022-08-25T07:36:56;22.30;99.90
55369;DHT22;41247;49.736;8.752;2022-08-25T07:40:37;22.50;99.90
55369;DHT22;41247;49.736;8.752;2022-08-25T07:44:20;22.60;99.90
55369;DHT22;41247;49.736;8.752;2022-08-25T07:48:07;22.80;99.90
55369;DHT22;41247;49.736;8.752;2022-08-25T07:51:50;22.90;99.90
55369;DHT22;41247;49.736;8.752;2022-08-25T07:55:35;23.10;99.90
55369;DHT22;41247;49.736;8.752;2022-08-25T07:59:15;23.20;99.90
55369;DHT22;41247;49.736;8.752;2022-08-25T08:02:56;23.30;99.90
55369;DHT22;41247;49.736;8.752;2022-08-25T08:06:38;23.50;99.90
55369;DHT22;41247;49.736;8.752;2022-08-25T08:10:19;23.60;99.90
55369;DHT22;41247;49.736;8.752;2022-08-25T08:14:01;23.80;99.90
55369;DHT22;41247;49.736;8.752;2022-08-25T08:17:42;23.90;99.90
55369;DHT22;41247;49.736;8.752;2022-08-25T08:21:29;24.00;99.90
55369;DHT22;41247;49.736;8.752;2022-08-25T08:25:11;24.10;99.90
55369;DHT22;41247;49.736;8.752;2022-08-25T08:28:51;24.10;99.90
55369;DHT22;41247;49.736;8.752;2022-08-25T08:32:32;24.20;99.90
55369;DHT22;41247;49.736;8.752;2022-08-25T08:36:13;24.30;99.90
55369;DHT22;41247;49.736;8.752;2022-08-25T08:39:54;24.40;99.90
55369;DHT22;41247;49.736;8.752;2022-08-25T08:43:35;24.50;99.90
55369;DHT22;41247;49.736;8.752;2022-08-25T08:51:32;24.70;99.90
55369;DHT22;41247;49.736;8.752;2022-08-25T08:55:35;24.80;99.90
55369;DHT22;41247;49.736;8.752;2022-08-25T08:59:20;24.90;99.90
55369;DHT22;41247;49.736;8.752;2022-08-25T09:03:05;25.00;99.90
55369;DHT22;41247;49.736;8.752;2022-08-25T09:06:49;25.10;99.90
55369;DHT22;41247;49.736;8.752;2022-08-25T09:15:18;25.30;99.90
55369;DHT22;41247;49.736;8.752;2022-08-25T09:23:40;25.70;99.90
55369;DHT22;41247;49.736;8.752;2022-08-25T09:31:59;25.90;99.90
55369;DHT22;41247;49.736;8.752;2022-08-25T09:35:41;26.00;99.90
55369;DHT22;41247;49.736;8.752;2022-08-25T09:39:22;26.00;99.90
55369;DHT22;41247;49.736;8.752;2022-08-25T09:43:08;26.10;99.90
55369;DHT22;41247;49.736;8.752;2022-08-25T09:47:04;26.10;99.90
55369;DHT22;41247;49.736;8.752;2022-08-25T09:51:19;26.20;99.90
55369;DHT22;41247;49.736;8.752;2022-08-25T09:58:54;26.60;99.90
55369;DHT22;41247;49.736;8.752;2022-08-25T10:02:35;26.70;99.90
55369;DHT22;41247;49.736;8.752;2022-08-25T10:06:16;26.80;99.90
55369;DHT22;41247;49.736;8.752;2022-08-25T10:10:03;27.00;99.90
55369;DHT22;41247;49.736;8.752;2022-08-25T10:14:06;27.10;99.90
55369;DHT22;41247;49.736;8.752;2022-08-25T10:18:15;26.70;99.90
55369;DHT22;41247;49.736;8.752;2022-08-25T10:22:11;26.80;99.90
55369;DHT22;41247;49.736;8.752;2022-08-25T10:26:14;27.10;99.90
55369;DHT22;41247;49.736;8.752;2022-08-25T10:34:21;27.60;99.90
55369;DHT22;41247;49.736;8.752;2022-08-25T10:38:10;27.70;99.90
55369;DHT22;41247;49.736;8.752;2022-08-25T10:46:34;28.00;99.90
55369;DHT22;41247;49.736;8.752;2022-08-25T10:50:48;28.20;99.90
55369;DHT22;41247;49.736;8.752;2022-08-25T10:55:00;28.40;99.90
55369;DHT22;41247;49.736;8.752;2022-08-25T11:07:33;29.30;99.90
55369;DHT22;41247;49.736;8.752;2022-08-25T11:11:30;29.70;99.90
55369;DHT22;41247;49.736;8.752;2022-08-25T11:15:24;30.10;99.90
55369;DHT22;41247;49.736;8.752;2022-08-25T11:19:27;30.50;99.90
55369;DHT22;41247;49.736;8.752;2022-08-25T11:23:23;30.60;99.90
55369;DHT22;41247;49.736;8.752;2022-08-25T11:27:17;30.10;99.90
55369;DHT22;41247;49.736;8.752;2022-08-25T11:31:01;29.90;99.90
55369;DHT22;41247;49.736;8.752;2022-08-25T11:34:42;30.40;99.90
55369;DHT22;41247;49.736;8.752;2022-08-25T11:38:26;30.50;99.90
55369;DHT22;41247;49.736;8.752;2022-08-25T11:51:31;29.50;99.90
55369;DHT22;41247;49.736;8.752;2022-08-25T11:55:14;30.00;99.90
55369;DHT22;41247;49.736;8.752;2022-08-25T11:59:01;30.50;99.90
55369;DHT22;41247;49.736;8.752;2022-08-25T12:02:47;30.80;99.90
55369;DHT22;41247;49.736;8.752;2022-08-25T12:06:30;31.40;99.90
55369;DHT22;41247;49.736;8.752;2022-08-25T12:10:17;31.80;99.90
55369;DHT22;41247;49.736;8.752;2022-08-25T12:18:14;32.80;99.90
55369;DHT22;41247;49.736;8.752;2022-08-25T12:34:33;30.20;99.90
55369;DHT22;41247;49.736;8.752;2022-08-25T12:38:30;30.80;99.90
55369;DHT22;41247;49.736;8.752;2022-08-25T12:42:37;31.80;99.90
55369;DHT22;41247;49.736;8.752;2022-08-25T12:54:25;33.40;99.90
55369;DHT22;41247;49.736;8.752;2022-08-25T12:58:11;33.80;99.90
55369;DHT22;41247;49.736;8.752;2022-08-25T13:06:21;32.90;99.90
55369;DHT22;41247;49.736;8.752;2022-08-25T13:14:21;31.20;99.90
55369;DHT22;41247;49.736;8.752;2022-08-25T13:18:22;30.70;99.90
55369;DHT22;41247;49.736;8.752;2022-08-25T13:22:13;30.30;99.90
55369;DHT22;41247;49.736;8.752;2022-08-25T13:25:55;30.10;99.90
55369;DHT22;41247;49.736;8.752;2022-08-25T13:29:55;30.30;99.90
55369;DHT22;41247;49.736;8.752;2022-08-25T13:33:37;30.60;99.90
55369;DHT22;41247;49.736;8.752;2022-08-25T13:37:22;30.50;99.90
55369;DHT22;41247;49.736;8.752;2022-08-25T13:41:05;30.50;99.90
55369;DHT22;41247;49.736;8.752;2022-08-25T13:44:46;31.10;99.90
55369;DHT22;41247;49.736;8.752;2022-08-25T13:48:35;31.90;99.90
55369;DHT22;41247;49.736;8.752;2022-08-25T13:52:26;32.50;99.90
55369;DHT22;41247;49.736;8.752;2022-08-25T13:56:08;32.80;99.90
55369;DHT22;41247;49.736;8.752;2022-08-25T13:59:51;33.00;99.90
55369;DHT22;41247;49.736;8.752;2022-08-25T14:03:39;33.30;99.90
55369;DHT22;41247;49.736;8.752;2022-08-25T14:11:24;34.10;99.90
55369;DHT22;41247;49.736;8.752;2022-08-25T14:15:26;34.40;99.90
55369;DHT22;41247;49.736;8.752;2022-08-25T14:19:14;34.70;99.90
55369;DHT22;41247;49.736;8.752;2022-08-25T14:22:58;34.80;99.90
55369;DHT22;41247;49.736;8.752;2022-08-25T14:26:42;34.80;99.90
55369;DHT22;41247;49.736;8.752;2022-08-25T14:30:22;34.90;99.90
55369;DHT22;41247;49.736;8.752;2022-08-25T14:34:19;35.00;99.90
55369;DHT22;41247;49.736;8.752;2022-08-25T14:38:07;35.30;99.90
55369;DHT22;41247;49.736;8.752;2022-08-25T14:41:49;35.50;99.90
55369;DHT22;41247;49.736;8.752;2022-08-25T14:45:30;35.30;99.90
55369;DHT22;41247;49.736;8.752;2022-08-25T14:49:16;35.00;99.90
55369;DHT22;41247;49.736;8.752;2022-08-25T14:53:00;34.50;99.90
55369;DHT22;41247;49.736;8.752;2022-08-25T14:56:41;34.50;99.90
55369;DHT22;41247;49.736;8.752;2022-08-25T15:00:22;34.50;99.90
55369;DHT22;41247;49.736;8.752;2022-08-25T15:04:06;34.60;99.90
55369;DHT22;41247;49.736;8.752;2022-08-25T15:07:51;34.70;99.90
55369;DHT22;41247;49.736;8.752;2022-08-25T15:11:33;34.60;99.90
55369;DHT22;41247;49.736;8.752;2022-08-25T15:15:14;34.40;99.90
55369;DHT22;41247;49.736;8.752;2022-08-25T15:18:55;34.20;99.90
55369;DHT22;41247;49.736;8.752;2022-08-25T15:22:36;33.50;99.90
55369;DHT22;41247;49.736;8.752;2022-08-25T15:26:17;32.90;99.90
55369;DHT22;41247;49.736;8.752;2022-08-25T15:29:58;32.50;99.90
55369;DHT22;41247;49.736;8.752;2022-08-25T15:33:39;32.10;99.90
55369;DHT22;41247;49.736;8.752;2022-08-25T15:37:19;31.80;99.90
55369;DHT22;41247;49.736;8.752;2022-08-25T15:41:00;31.50;99.90
55369;DHT22;41247;49.736;8.752;2022-08-25T15:44:41;31.20;99.90
55369;DHT22;41247;49.736;8.752;2022-08-25T15:48:22;31.00;99.90
55369;DHT22;41247;49.736;8.752;2022-08-25T15:52:03;30.70;99.90
55369;DHT22;41247;49.736;8.752;2022-08-25T15:55:44;30.50;99.90
55369;DHT22;41247;49.736;8.752;2022-08-25T15:59:25;30.40;99.90
55369;DHT22;41247;49.736;8.752;2022-08-25T16:03:06;30.10;99.90
55369;DHT22;41247;49.736;8.752;2022-08-25T16:06:47;30.00;99.90
55369;DHT22;41247;49.736;8.752;2022-08-25T16:10:32;29.80;99.90
55369;DHT22;41247;49.736;8.752;2022-08-25T16:14:13;29.60;99.90
55369;DHT22;41247;49.736;8.752;2022-08-25T16:17:54;29.60;99.90
55369;DHT22;41247;49.736;8.752;2022-08-25T16:21:35;29.50;99.90
55369;DHT22;41247;49.736;8.752;2022-08-25T16:25:16;29.40;99.90
55369;DHT22;41247;49.736;8.752;2022-08-25T16:28:57;29.40;99.90
55369;DHT22;41247;49.736;8.752;2022-08-25T16:32:38;29.30;99.90
55369;DHT22;41247;49.736;8.752;2022-08-25T16:36:23;29.20;99.90
55369;DHT22;41247;49.736;8.752;2022-08-25T16:40:06;29.00;99.90
55369;DHT22;41247;49.736;8.752;2022-08-25T16:43:48;28.90;99.90
55369;DHT22;41247;49.736;8.752;2022-08-25T16:47:34;28.90;99.90
55369;DHT22;41247;49.736;8.752;2022-08-25T16:51:17;28.70;99.90
55369;DHT22;41247;49.736;8.752;2022-08-25T16:54:59;28.50;99.90
55369;DHT22;41247;49.736;8.752;2022-08-25T16:58:40;28.30;99.90
55369;DHT22;41247;49.736;8.752;2022-08-25T17:02:21;28.20;99.90
55369;DHT22;41247;49.736;8.752;2022-08-25T17:06:02;28.10;99.90
55369;DHT22;41247;49.736;8.752;2022-08-25T17:09:42;28.00;99.90
55369;DHT22;41247;49.736;8.752;2022-08-25T17:13:23;27.90;99.90
55369;DHT22;41247;49.736;8.752;2022-08-25T17:17:04;27.80;99.90
55369;DHT22;41247;49.736;8.752;2022-08-25T17:20:44;27.60;99.90
55369;DHT22;41247;49.736;8.752;2022-08-25T17:24:25;27.40;99.90
55369;DHT22;41247;49.736;8.752;2022-08-25T17:28:05;27.30;99.90
55369;DHT22;41247;49.736;8.752;2022-08-25T17:31:46;27.10;99.90
55369;DHT22;41247;49.736;8.752;2022-08-25T17:35:27;27.00;99.90
55369;DHT22;41247;49.736;8.752;2022-08-25T17:39:11;26.80;99.90
55369;DHT22;41247;49.736;8.752;2022-08-25T17:42:53;26.70;99.90
55369;DHT22;41247;49.736;8.752;2022-08-25T17:46:34;26.50;99.90
55369;DHT22;41247;49.736;8.752;2022-08-25T17:50:14;26.30;99.90
55369;DHT22;41247;49.736;8.752;2022-08-25T17:53:55;26.10;99.90
55369;DHT22;41247;49.736;8.752;2022-08-25T17:57:36;25.90;99.90
55369;DHT22;41247;49.736;8.752;2022-08-25T18:01:28;25.60;99.90
55369;DHT22;41247;49.736;8.752;2022-08-25T18:05:11;25.40;99.90
55369;DHT22;41247;49.736;8.752;2022-08-25T18:08:53;25.10;99.90
55369;DHT22;41247;49.736;8.752;2022-08-25T18:12:35;24.90;99.90
55369;DHT22;41247;49.736;8.752;2022-08-25T18:16:17;24.70;99.90
55369;DHT22;41247;49.736;8.752;2022-08-25T18:19:57;24.40;99.90
55369;DHT22;41247;49.736;8.752;2022-08-25T18:23:38;24.30;99.90
55369;DHT22;41247;49.736;8.752;2022-08-25T18:27:19;24.10;99.90
55369;DHT22;41247;49.736;8.752;2022-08-25T18:30:59;23.90;99.90
55369;DHT22;41247;49.736;8.752;2022-08-25T18:34:40;23.60;99.90
55369;DHT22;41247;49.736;8.752;2022-08-25T18:38:20;23.40;99.90
55369;DHT22;41247;49.736;8.752;2022-08-25T18:42:04;23.30;99.90
55369;DHT22;41247;49.736;8.752;2022-08-25T18:45:46;23.10;99.90
55369;DHT22;41247;49.736;8.752;2022-08-25T18:49:27;22.90;99.90
55369;DHT22;41247;49.736;8.752;2022-08-25T18:53:08;22.80;99.90
55369;DHT22;41247;49.736;8.752;2022-08-25T18:56:51;22.60;99.90
55369;DHT22;41247;49.736;8.752;2022-08-25T19:00:33;22.50;99.90
55369;DHT22;41247;49.736;8.752;2022-08-25T19:04:14;22.40;99.90
55369;DHT22;41247;49.736;8.752;2022-08-25T19:07:55;22.30;99.90
55369;DHT22;41247;49.736;8.752;2022-08-25T19:11:36;22.10;99.90
55369;DHT22;41247;49.736;8.752;2022-08-25T19:15:16;22.00;99.90
55369;DHT22;41247;49.736;8.752;2022-08-25T19:18:57;21.90;99.90
55369;DHT22;41247;49.736;8.752;2022-08-25T19:22:38;21.80;99.90
55369;DHT22;41247;49.736;8.752;2022-08-25T19:26:19;21.70;99.90
55369;DHT22;41247;49.736;8.752;2022-08-25T19:30:02;21.60;99.90
55369;DHT22;41247;49.736;8.752;2022-08-25T19:33:46;21.60;99.90
55369;DHT22;41247;49.736;8.752;2022-08-25T19:37:28;21.50;99.90
55369;DHT22;41247;49.736;8.752;2022-08-25T19:41:09;21.40;99.90
55369;DHT22;41247;49.736;8.752;2022-08-25T19:44:50;21.40;99.90
55369;DHT22;41247;49.736;8.752;2022-08-25T19:48:30;21.30;99.90
55369;DHT22;41247;49.736;8.752;2022-08-25T19:52:12;21.20;99.90
55369;DHT22;41247;49.736;8.752;2022-08-25T19:55:53;21.20;99.90
55369;DHT22;41247;49.736;8.752;2022-08-25T19:59:37;21.10;99.90
55369;DHT22;41247;49.736;8.752;2022-08-25T20:03:20;21.10;99.90
55369;DHT22;41247;49.736;8.752;2022-08-25T20:07:01;21.00;99.90
55369;DHT22;41247;49.736;8.752;2022-08-25T20:10:42;21.00;99.90
55369;DHT22;41247;49.736;8.752;2022-08-25T20:14:23;21.00;99.90
55369;DHT22;41247;49.736;8.752;2022-08-25T20:18:04;21.00;99.90
55369;DHT22;41247;49.736;8.752;2022-08-25T20:21:44;20.90;99.90
55369;DHT22;41247;49.736;8.752;2022-08-25T20:25:25;20.90;99.90
55369;DHT22;41247;49.736;8.752;2022-08-25T20:29:06;20.80;99.90
55369;DHT22;41247;49.736;8.752;2022-08-25T20:32:47;20.80;99.90
55369;DHT22;41247;49.736;8.752;2022-08-25T20:36:29;20.80;99.90
55369;DHT22;41247;49.736;8.752;2022-08-25T20:40:16;20.70;99.90
55369;DHT22;41247;49.736;8.752;2022-08-25T20:43:58;20.70;99.90
55369;DHT22;41247;49.736;8.752;2022-08-25T20:47:39;20.60;99.90
55369;DHT22;41247;49.736;8.752;2022-08-25T20:51:20;20.50;99.90
55369;DHT22;41247;49.736;8.752;2022-08-25T20:55:00;20.60;99.90
55369;DHT22;41247;49.736;8.752;2022-08-25T20:58:42;20.50;99.90
55369;DHT22;41247;49.736;8.752;2022-08-25T21:02:23;20.50;99.90
55369;DHT22;41247;49.736;8.752;2022-08-25T21:06:09;20.50;99.90
55369;DHT22;41247;49.736;8.752;2022-08-25T21:09:51;20.40;99.90
55369;DHT22;41247;49.736;8.752;2022-08-25T21:13:32;20.40;99.90
55369;DHT22;41247;49.736;8.752;2022-08-25T21:17:13;20.40;99.90
55369;DHT22;41247;49.736;8.752;2022-08-25T21:20:54;20.40;99.90
55369;DHT22;41247;49.736;8.752;2022-08-25T21:24:35;20.40;99.90
55369;DHT22;41247;49.736;8.752;2022-08-25T21:28:16;20.40;99.90
55369;DHT22;41247;49.736;8.752;2022-08-25T21:31:56;20.40;99.90
55369;DHT22;41247;49.736;8.752;2022-08-25T21:35:40;20.40;99.90
55369;DHT22;41247;49.736;8.752;2022-08-25T21:39:21;20.40;99.90
55369;DHT22;41247;49.736;8.752;2022-08-25T21:43:02;20.40;99.90
55369;DHT22;41247;49.736;8.752;2022-08-25T21:46:43;20.30;99.90
55369;DHT22;41247;49.736;8.752;2022-08-25T21:50:23;20.30;99.90
55369;DHT22;41247;49.736;8.752;2022-08-25T21:54:06;20.30;99.90
55369;DHT22;41247;49.736;8.752;2022-08-25T21:57:48;20.30;99.90
55369;DHT22;41247;49.736;8.752;2022-08-25T22:01:29;20.20;99.90
55369;DHT22;41247;49.736;8.752;2022-08-25T22:05:10;20.20;99.90
55369;DHT22;41247;49.736;8.752;2022-08-25T22:08:51;20.20;99.90
55369;DHT22;41247;49.736;8.752;2022-08-25T22:12:31;20.20;99.90
55369;DHT22;41247;49.736;8.752;2022-08-25T22:16:12;20.20;99.90
55369;DHT22;41247;49.736;8.752;2022-08-25T22:19:53;20.20;99.90
55369;DHT22;41247;49.736;8.752;2022-08-25T22:23:34;20.10;99.90
55369;DHT22;41247;49.736;8.752;2022-08-25T22:27:15;20.10;99.90
55369;DHT22;41247;49.736;8.752;2022-08-25T22:31:00;20.10;99.90
55369;DHT22;41247;49.736;8.752;2022-08-25T22:34:41;20.00;99.90
55369;DHT22;41247;49.736;8.752;2022-08-25T22:38:21;20.00;99.90
55369;DHT22;41247;49.736;8.752;2022-08-25T22:42:02;20.10;99.90
55369;DHT22;41247;49.736;8.752;2022-08-25T22:45:43;20.00;99.90
55369;DHT22;41247;49.736;8.752;2022-08-25T22:49:27;20.10;99.90
55369;DHT22;41247;49.736;8.752;2022-08-25T22:53:08;20.10;99.90
55369;DHT22;41247;49.736;8.752;2022-08-25T22:56:48;20.00;99.90
55369;DHT22;41247;49.736;8.752;2022-08-25T23:00:29;20.00;99.90
55369;DHT22;41247;49.736;8.752;2022-08-25T23:04:10;20.00;99.90
55369;DHT22;41247;49.736;8.752;2022-08-25T23:07:51;20.00;99.90
55369;DHT22;41247;49.736;8.752;2022-08-25T23:11:32;20.00;99.90
55369;DHT22;41247;49.736;8.752;2022-08-25T23:15:13;19.90;99.90
55369;DHT22;41247;49.736;8.752;2022-08-25T23:18:53;19.80;99.90
55369;DHT22;41247;49.736;8.752;2022-08-25T23:22:34;19.80;99.90
55369;DHT22;41247;49.736;8.752;2022-08-25T23:26:15;19.70;99.90
55369;DHT22;41247;49.736;8.752;2022-08-25T23:29:56;19.70;99.90
55369;DHT22;41247;49.736;8.752;2022-08-25T23:33:37;19.70;99.90
55369;DHT22;41247;49.736;8.752;2022-08-25T23:37:18;19.70;99.90
55369;DHT22;41247;49.736;8.752;2022-08-25T23:40:59;19.70;99.90
55369;DHT22;41247;49.736;8.752;2022-08-25T23:44:39;19.70;99.90
55369;DHT22;41247;49.736;8.752;2022-08-25T23:48:20;19.80;99.90
55369;DHT22;41247;49.736;8.752;2022-08-25T23:52:00;19.80;99.90
55369;DHT22;41247;49.736;8.752;2022-08-25T23:55:41;19.80;99.90
55369;DHT22;41247;49.736;8.752;2022-08-25T23:59:22;19.90;99.90
